Time;durP1;ratioP1;P1;durP2;ratioP2;P2;SDS_P1;SDS_P2;PMS_P1;PMS_P2;Temp;Humidity;BMP_temperature;BMP_pressure;BME280_temperature;BME280_humidity;BME280_pressure;Samples;Min_cycle;Max_cycle;Signal;HPM_P1;HPM_P2
2022/02/13 00:01:10;;;;;;;9.83;2.80;;;0.50;99.90;;;;;;5099525;28;20230;-95
2022/02/13 00:03:36;;;;;;;2.30;1.43;;;0.50;99.90;;;;;;5099576;28;20436;-86
2022/02/13 00:06:01;;;;;;;2.43;0.87;;;0.40;99.90;;;;;;5104194;28;20426;-86
2022/02/13 00:08:27;;;;;;;6.37;1.93;;;0.50;99.90;;;;;;5103750;28;20167;-93
2022/02/13 00:10:53;;;;;;;3.10;1.47;;;0.50;99.90;;;;;;5100707;28;20180;-93
2022/02/13 00:13:21;;;;;;;3.73;1.87;;;0.50;99.90;;;;;;5099784;28;20172;-86
2022/02/13 00:15:46;;;;;;;2.57;1.20;;;0.50;99.90;;;;;;5100000;28;20188;-93
2022/02/13 00:18:12;;;;;;;3.03;1.83;;;0.50;99.90;;;;;;5101049;28;20408;-94
2022/02/13 00:20:37;;;;;;;4.43;2.43;;;0.40;99.90;;;;;;5100432;28;20525;-91
2022/02/13 00:23:03;;;;;;;3.80;1.73;;;0.50;99.90;;;;;;5102313;28;20172;-89
2022/02/13 00:25:31;;;;;;;4.43;2.70;;;0.50;99.90;;;;;;5104902;28;20179;-86
2022/02/13 00:28:07;;;;;;;12.67;3.70;;;0.50;99.90;;;;;;5100034;28;20173;-96
2022/02/13 00:30:32;;;;;;;5.57;2.67;;;0.50;99.90;;;;;;5104242;28;20471;-93
2022/02/13 00:32:58;;;;;;;3.57;2.03;;;0.50;99.90;;;;;;5104237;28;20422;-90
2022/02/13 00:35:26;;;;;;;3.80;2.10;;;0.50;99.90;;;;;;5098776;28;20668;-94
2022/02/13 00:37:51;;;;;;;6.73;3.20;;;0.50;99.90;;;;;;5097585;28;20168;-96
2022/02/13 00:40:17;;;;;;;9.90;3.50;;;0.40;99.90;;;;;;5097841;28;20444;-95
2022/02/13 00:42:42;;;;;;;6.73;3.07;;;0.50;99.90;;;;;;5094363;28;20177;-96
2022/02/13 00:45:11;;;;;;;3.47;2.33;;;0.40;99.90;;;;;;5093537;28;20211;-93
2022/02/13 00:47:37;;;;;;;5.83;3.20;;;0.40;99.90;;;;;;5093284;28;20625;-92
2022/02/13 00:50:03;;;;;;;2.93;1.97;;;0.50;99.90;;;;;;5093547;28;20468;-90
2022/02/13 00:52:30;;;;;;;6.03;1.93;;;0.30;99.90;;;;;;5092460;28;20427;-87
2022/02/13 00:54:55;;;;;;;4.63;1.50;;;0.40;99.90;;;;;;5092627;28;20175;-94
2022/02/13 00:57:21;;;;;;;5.97;2.30;;;0.40;99.90;;;;;;5093403;28;20445;-90
2022/02/13 00:59:46;;;;;;;5.50;3.17;;;0.40;99.90;;;;;;5093941;28;20225;-91
2022/02/13 01:02:12;;;;;;;5.50;2.43;;;0.30;99.90;;;;;;5092033;28;20224;-93
2022/02/13 01:04:38;;;;;;;8.77;3.60;;;;;;;;;;5094952;28;20187;-91
2022/02/13 01:07:03;;;;;;;4.40;2.70;;;-0.20;99.90;;;;;;5093070;28;20274;-94
2022/02/13 01:09:29;;;;;;;3.57;3.10;;;0.30;99.90;;;;;;5093334;28;20418;-92
2022/02/13 01:11:54;;;;;;;3.30;2.30;;;0.20;99.90;;;;;;5092575;28;20183;-91
2022/02/13 01:14:20;;;;;;;2.67;1.40;;;0.30;99.90;;;;;;5097092;28;20173;-95
2022/02/13 01:16:45;;;;;;;3.37;1.77;;;0.10;99.90;;;;;;5096341;28;20240;-93
2022/02/13 01:19:11;;;;;;;6.00;2.87;;;0.10;99.90;;;;;;5098602;28;20181;-92
2022/02/13 01:21:36;;;;;;;3.20;2.53;;;0.20;99.90;;;;;;5100680;28;20203;-95
2022/02/13 01:24:03;;;;;;;2.77;2.27;;;0.20;99.90;;;;;;5097842;28;20203;-94
2022/02/13 01:26:28;;;;;;;3.50;2.40;;;0.20;99.90;;;;;;5102739;28;20671;-89
2022/02/13 01:28:53;;;;;;;4.00;2.20;;;0.20;99.90;;;;;;5099433;28;20410;-95
2022/02/13 01:31:19;;;;;;;8.23;2.30;;;0.40;99.90;;;;;;5097477;28;20582;-90
2022/02/13 01:33:45;;;;;;;2.77;1.97;;;0.20;99.90;;;;;;5097107;28;20212;-95
2022/02/13 01:36:13;;;;;;;1.77;1.60;;;0.10;99.90;;;;;;5097958;28;20210;-94
2022/02/13 01:38:39;;;;;;;3.03;1.87;;;0.30;99.90;;;;;;5097029;28;20274;-95
2022/02/13 01:41:05;;;;;;;3.93;2.00;;;0.30;99.90;;;;;;5097019;28;20461;-95
2022/02/13 01:43:30;;;;;;;5.17;1.03;;;0.30;99.90;;;;;;5096558;28;20175;-88
2022/02/13 01:45:56;;;;;;;4.60;1.50;;;0.20;99.90;;;;;;5098330;28;20407;-87
2022/02/13 01:48:21;;;;;;;4.73;2.17;;;0.30;99.90;;;;;;5096173;28;20177;-87
2022/02/13 01:50:51;;;;;;;4.27;1.90;;;0.20;99.90;;;;;;5095076;28;20186;-89
2022/02/13 01:53:18;;;;;;;3.57;2.30;;;0.40;99.90;;;;;;5094760;28;20254;-90
2022/02/13 01:55:48;;;;;;;5.83;2.17;;;0.40;99.90;;;;;;5091724;28;20558;-94
2022/02/13 01:58:14;;;;;;;3.50;1.57;;;0.40;99.90;;;;;;5090774;28;20483;-93
2022/02/13 02:00:39;;;;;;;2.80;1.60;;;0.30;99.90;;;;;;5092159;28;20437;-92
2022/02/13 02:03:05;;;;;;;7.97;2.03;;;0.30;99.90;;;;;;5092146;28;20426;-88
2022/02/13 02:05:31;;;;;;;4.47;1.70;;;0.30;99.90;;;;;;5090520;28;20172;-94
2022/02/13 02:07:56;;;;;;;1.83;1.57;;;0.30;99.90;;;;;;5094412;28;20216;-94
2022/02/13 02:10:23;;;;;;;5.20;1.90;;;0.30;99.90;;;;;;5094022;28;20211;-89
2022/02/13 02:12:49;;;;;;;5.10;2.60;;;0.40;99.90;;;;;;5095047;28;20179;-87
2022/02/13 02:15:17;;;;;;;3.93;1.60;;;0.40;99.90;;;;;;5094983;28;20454;-94
2022/02/13 02:17:43;;;;;;;2.80;2.33;;;0.20;99.90;;;;;;5095128;28;20449;-93
2022/02/13 02:20:10;;;;;;;3.33;1.90;;;0.20;99.90;;;;;;5097592;28;20426;-91
2022/02/13 02:22:36;;;;;;;5.20;2.63;;;0.30;99.90;;;;;;5097160;28;20482;-89
2022/02/13 02:25:02;;;;;;;3.10;2.30;;;0.30;99.90;;;;;;5096496;28;20437;-87
2022/02/13 02:27:28;;;;;;;4.33;2.37;;;0.30;99.90;;;;;;5094663;28;20172;-92
2022/02/13 02:29:53;;;;;;;2.20;1.63;;;0.20;99.90;;;;;;5092916;28;20429;-88
2022/02/13 02:32:19;;;;;;;5.30;2.43;;;0.30;99.90;;;;;;5098095;28;20168;-92
2022/02/13 02:34:44;;;;;;;3.63;2.20;;;0.20;99.90;;;;;;5096871;28;20241;-91
2022/02/13 02:37:10;;;;;;;7.17;3.40;;;0.30;99.90;;;;;;5094001;28;20220;-94
2022/02/13 02:39:39;;;;;;;3.37;1.70;;;0.20;99.90;;;;;;5094337;28;20563;-89
2022/02/13 02:42:05;;;;;;;3.03;1.93;;;0.20;99.90;;;;;;5093717;28;20437;-88
2022/02/13 02:44:32;;;;;;;4.13;3.83;;;0.20;99.90;;;;;;5093437;28;20903;-86
2022/02/13 02:47:00;;;;;;;5.07;2.73;;;0.30;99.90;;;;;;5093541;28;20176;-89
2022/02/13 02:49:29;;;;;;;3.90;2.73;;;0.10;99.90;;;;;;5093438;28;20418;-87
2022/02/13 02:51:54;;;;;;;5.93;2.83;;;0.20;99.90;;;;;;5092980;28;20417;-86
2022/02/13 02:54:20;;;;;;;3.90;2.43;;;0.30;99.90;;;;;;5093594;28;20469;-88
2022/02/13 02:56:45;;;;;;;3.53;2.10;;;0.20;99.90;;;;;;5094065;28;20208;-89
2022/02/13 02:59:11;;;;;;;4.07;2.40;;;0.20;99.90;;;;;;5094071;28;20202;-90
2022/02/13 03:01:37;;;;;;;2.60;2.10;;;0.10;99.90;;;;;;5093625;28;20251;-89
2022/02/13 03:04:02;;;;;;;3.27;2.77;;;0.10;99.90;;;;;;5107378;28;20288;-87
2022/02/13 03:06:28;;;;;;;2.63;2.43;;;0.10;99.90;;;;;;5096363;28;20203;-88
2022/02/13 03:08:53;;;;;;;4.33;2.30;;;0.10;99.90;;;;;;5097103;28;20173;-88
2022/02/13 03:11:18;;;;;;;7.70;2.83;;;0.00;99.90;;;;;;5098057;28;20197;-87
2022/02/13 03:13:45;;;;;;;4.03;2.83;;;0.00;99.90;;;;;;5093981;28;20267;-89
2022/02/13 03:16:10;;;;;;;3.33;1.90;;;-0.10;99.90;;;;;;5093542;28;20281;-87
2022/02/13 03:18:36;;;;;;;3.73;2.20;;;-0.20;99.90;;;;;;5093398;28;20931;-87
2022/02/13 03:21:02;;;;;;;6.03;2.50;;;-0.20;99.90;;;;;;5091562;28;20209;-88
2022/02/13 03:23:27;;;;;;;4.80;2.80;;;-0.20;99.90;;;;;;5092606;28;20184;-87
2022/02/13 03:25:53;;;;;;;4.07;2.57;;;-0.20;99.90;;;;;;5094288;28;20463;-89
2022/02/13 03:28:19;;;;;;;3.40;2.40;;;-0.10;99.90;;;;;;5093302;28;20183;-90
2022/02/13 03:30:45;;;;;;;3.93;2.40;;;-0.20;99.90;;;;;;5094158;28;20186;-85
2022/02/13 03:33:11;;;;;;;3.27;2.17;;;-0.30;99.90;;;;;;5094068;28;20191;-87
2022/02/13 03:35:36;;;;;;;3.60;2.50;;;-0.10;99.90;;;;;;5093563;28;20458;-89
2022/02/13 03:38:04;;;;;;;8.73;2.43;;;-0.20;99.90;;;;;;5093484;28;20251;-87
2022/02/13 03:40:30;;;;;;;4.23;2.13;;;-0.20;99.90;;;;;;5094057;28;20257;-89
2022/02/13 03:42:55;;;;;;;5.60;2.80;;;-0.20;99.90;;;;;;5093511;28;20442;-89
2022/02/13 03:45:21;;;;;;;4.10;2.67;;;-0.30;99.90;;;;;;5094020;28;20172;-88
2022/02/13 03:47:46;;;;;;;4.93;2.77;;;-0.10;99.90;;;;;;5092807;28;20210;-90
2022/02/13 03:50:12;;;;;;;3.20;2.90;;;-0.20;99.90;;;;;;5093339;28;20202;-87
2022/02/13 03:52:37;;;;;;;7.37;3.20;;;-0.20;99.90;;;;;;5093519;28;20538;-88
2022/02/13 03:55:23;;;;;;;4.93;2.70;;;-0.20;99.90;;;;;;5092243;28;20202;-85
2022/02/13 03:57:50;;;;;;;3.80;2.60;;;-0.30;99.90;;;;;;5093022;28;20192;-86
2022/02/13 04:00:15;;;;;;;4.20;2.40;;;-0.20;99.90;;;;;;5091919;28;20424;-87
2022/02/13 04:02:41;;;;;;;9.50;3.00;;;-0.10;99.90;;;;;;5091863;28;20542;-86
2022/02/13 04:05:08;;;;;;;5.70;3.57;;;-0.20;99.90;;;;;;5092721;28;20187;-86
2022/02/13 04:07:34;;;;;;;3.80;1.73;;;-0.20;99.90;;;;;;5093206;28;20180;-87
2022/02/13 04:09:59;;;;;;;5.77;2.20;;;0.00;99.90;;;;;;5091852;28;20515;-85
2022/02/13 04:12:25;;;;;;;5.30;2.70;;;-0.20;99.90;;;;;;5091648;28;20975;-84
2022/02/13 04:14:51;;;;;;;9.90;2.43;;;-0.20;99.90;;;;;;5092913;28;20187;-85
2022/02/13 04:17:17;;;;;;;4.67;2.87;;;-0.10;99.90;;;;;;5093042;28;20226;-86
2022/02/13 04:19:43;;;;;;;3.53;2.50;;;-0.20;99.90;;;;;;5092600;28;20523;-88
2022/02/13 04:22:09;;;;;;;4.13;2.30;;;-0.30;99.90;;;;;;5092966;28;20494;-87
2022/02/13 04:24:34;;;;;;;3.87;2.50;;;-0.30;99.90;;;;;;5092910;28;20179;-85
2022/02/13 04:27:00;;;;;;;5.73;3.20;;;-0.30;99.90;;;;;;5092838;28;20216;-85
2022/02/13 04:29:25;;;;;;;4.33;2.70;;;-0.40;99.90;;;;;;5091585;28;20262;-85
2022/02/13 04:31:51;;;;;;;3.83;2.40;;;-0.30;99.90;;;;;;5091609;28;20181;-87
2022/02/13 04:34:17;;;;;;;4.13;2.20;;;;;;;;;;5092886;28;20410;-85
2022/02/13 04:36:43;;;;;;;4.87;2.40;;;;;;;;;;5090921;28;20570;-85
2022/02/13 04:39:09;;;;;;;7.03;2.80;;;;;;;;;;5092736;28;20417;-86
2022/02/13 04:41:35;;;;;;;4.53;2.83;;;;;;;;;;5092716;28;20423;-86
2022/02/13 04:44:01;;;;;;;4.03;1.80;;;;;;;;;;5092700;28;20921;-86
2022/02/13 04:46:27;;;;;;;3.20;2.17;;;;;;;;;;5092715;28;20913;-86
2022/02/13 04:48:53;;;;;;;5.20;2.90;;;;;;;;;;5091463;28;20420;-86
2022/02/13 04:51:19;;;;;;;4.40;2.40;;;;;;;;;;5094611;28;20533;-84
2022/02/13 04:53:45;;;;;;;3.30;2.30;;;;;;;;;;5096660;28;20822;-86
2022/02/13 04:56:11;;;;;;;3.03;1.90;;;;;;;;;;5096526;28;20554;-86
2022/02/13 04:58:37;;;;;;;4.50;1.90;;;;;;;;;;5096538;28;20409;-87
2022/02/13 05:01:03;;;;;;;6.03;2.97;;;;;;;;;;5096405;28;20454;-87
2022/02/13 05:03:29;;;;;;;3.10;1.53;;;;;;;;;;5095301;28;20512;-87
2022/02/13 05:05:55;;;;;;;2.20;2.00;;;;;;;;;;5096237;28;20739;-87
2022/02/13 05:08:21;;;;;;;7.73;2.90;;;;;;;;;;5095142;28;20509;-87
2022/02/13 05:10:48;;;;;;;5.23;3.20;;;;;;;;;;5095100;28;20413;-86
2022/02/13 05:13:14;;;;;;;8.03;3.20;;;;;;;;;;5096627;28;20506;-86
2022/02/13 05:15:40;;;;;;;7.77;4.17;;;;;;;;;;5096198;28;20986;-87
2022/02/13 05:18:06;;;;;;;6.93;4.80;;;;;;;;;;5095229;28;20525;-86
2022/02/13 05:20:32;;;;;;;7.30;2.70;;;;;;;;;;5096108;28;20474;-87
2022/02/13 05:22:58;;;;;;;4.67;2.33;;;;;;;;;;5096378;28;20415;-89
2022/02/13 05:25:25;;;;;;;6.27;3.10;;;;;;;;;;5096287;28;20451;-88
2022/02/13 05:27:51;;;;;;;7.33;3.27;;;;;;;;;;5096001;28;20419;-87
2022/02/13 05:30:24;;;;;;;4.93;2.10;;;;;;;;;;5096341;28;20410;-87
2022/02/13 05:32:50;;;;;;;13.50;3.90;;;;;;;;;;5096226;28;20414;-87
2022/02/13 05:35:16;;;;;;;2.60;2.40;;;;;;;;;;5094470;28;20417;-89
2022/02/13 05:37:42;;;;;;;5.10;2.90;;;;;;;;;;5095989;28;20453;-88
2022/02/13 05:40:08;;;;;;;5.07;2.83;;;;;;;;;;5094673;28;20515;-87
2022/02/13 05:42:35;;;;;;;6.07;2.93;;;;;;;;;;5095099;28;20510;-88
2022/02/13 05:45:01;;;;;;;4.43;2.20;;;;;;;;;;5094867;28;20414;-88
2022/02/13 05:47:27;;;;;;;7.80;2.80;;;;;;;;;;5095893;28;20404;-88
2022/02/13 05:49:52;;;;;;;4.23;3.10;;;-1.40;99.90;;;;;;5094378;28;21031;-87
2022/02/13 05:52:18;;;;;;;3.30;2.60;;;-1.30;99.90;;;;;;5094603;28;20506;-88
2022/02/13 05:54:44;;;;;;;6.17;3.70;;;-1.10;99.90;;;;;;5094599;28;20619;-88
2022/02/13 05:57:09;;;;;;;4.97;2.70;;;-1.30;99.90;;;;;;5095758;28;20213;-87
2022/02/13 05:59:35;;;;;;;5.50;2.80;;;-1.30;99.90;;;;;;5095761;28;20181;-87
2022/02/13 06:02:00;;;;;;;5.90;3.07;;;-1.40;99.90;;;;;;5094014;28;20237;-87
2022/02/13 06:04:28;;;;;;;4.60;2.47;;;-1.30;99.90;;;;;;5093895;28;20170;-88
2022/02/13 06:06:56;;;;;;;6.60;2.90;;;-1.00;99.90;;;;;;5094279;28;20178;-88
2022/02/13 06:09:23;;;;;;;7.63;3.70;;;-1.10;99.90;;;;;;5095540;28;20428;-88
2022/02/13 06:11:49;;;;;;;8.60;3.13;;;-1.20;99.90;;;;;;5094253;28;20415;-87
2022/02/13 06:14:15;;;;;;;10.20;2.87;;;-1.10;99.90;;;;;;5094080;28;20417;-87
2022/02/13 06:16:41;;;;;;;5.50;2.83;;;-1.20;99.90;;;;;;5093807;28;20486;-86
2022/02/13 06:19:07;;;;;;;4.07;3.60;;;-1.10;99.90;;;;;;5093536;28;20420;-85
2022/02/13 06:21:35;;;;;;;4.50;3.20;;;-0.70;99.90;;;;;;5095364;28;20202;-87
2022/02/13 06:24:01;;;;;;;2.97;2.50;;;-0.50;99.90;;;;;;5095449;28;20470;-90
2022/02/13 06:26:27;;;;;;;4.87;2.73;;;-0.60;99.90;;;;;;5093696;28;20436;-85
2022/02/13 06:28:53;;;;;;;2.87;2.13;;;-0.60;99.90;;;;;;5094074;28;20408;-85
2022/02/13 06:31:18;;;;;;;8.40;3.33;;;-0.70;99.90;;;;;;5095683;28;20171;-85
2022/02/13 06:33:44;;;;;;;5.50;2.70;;;-0.70;99.90;;;;;;5094924;28;20197;-89
2022/02/13 06:36:10;;;;;;;2.97;2.40;;;-0.80;99.90;;;;;;5095036;28;20295;-86
2022/02/13 06:38:35;;;;;;;3.43;3.10;;;-0.90;99.90;;;;;;5093486;28;20175;-84
2022/02/13 06:41:02;;;;;;;4.40;3.20;;;-1.00;99.90;;;;;;5097818;28;20203;-85
2022/02/13 06:43:32;;;;;;;2.90;1.73;;;-0.90;99.90;;;;;;5099267;28;20183;-85
2022/02/13 06:46:00;;;;;;;5.27;3.30;;;-0.90;99.90;;;;;;5095098;28;20421;-86
2022/02/13 06:48:31;;;;;;;3.17;2.07;;;-1.00;99.90;;;;;;5094801;28;20416;-89
2022/02/13 06:50:59;;;;;;;3.30;2.60;;;-1.00;99.90;;;;;;5093543;28;20424;-85
2022/02/13 06:53:25;;;;;;;4.73;2.67;;;-1.00;99.90;;;;;;5094518;28;20432;-86
2022/02/13 06:55:51;;;;;;;3.60;2.07;;;-1.20;99.90;;;;;;5093584;28;20468;-85
2022/02/13 06:58:18;;;;;;;4.60;3.37;;;-1.20;99.90;;;;;;5093551;28;20180;-86
2022/02/13 07:00:44;;;;;;;3.30;2.93;;;-1.10;99.90;;;;;;5094703;28;20428;-89
2022/02/13 07:03:10;;;;;;;4.70;2.83;;;-1.00;99.90;;;;;;5093482;28;20421;-89
2022/02/13 07:05:36;;;;;;;6.10;3.20;;;-0.90;99.90;;;;;;5094214;28;20174;-86
2022/02/13 07:08:01;;;;;;;3.33;2.60;;;-0.90;99.90;;;;;;5094729;28;20949;-87
2022/02/13 07:10:27;;;;;;;4.00;2.60;;;-1.00;99.90;;;;;;5094068;28;20577;-86
2022/02/13 07:12:53;;;;;;;5.80;3.93;;;-0.90;99.90;;;;;;5092553;28;20215;-86
2022/02/13 07:15:18;;;;;;;4.50;3.60;;;-0.60;99.90;;;;;;5092911;28;20167;-86
2022/02/13 07:17:44;;;;;;;3.27;2.70;;;-0.30;99.90;;;;;;5094055;28;20183;-86
2022/02/13 07:20:10;;;;;;;5.30;3.20;;;0.00;99.90;;;;;;5092588;28;20182;-89
2022/02/13 07:22:36;;;;;;;5.87;3.33;;;0.30;99.90;;;;;;5094402;28;20814;-85
2022/02/13 07:25:06;;;;;;;5.40;4.30;;;0.40;99.90;;;;;;5094159;28;20509;-87
2022/02/13 07:27:32;;;;;;;10.37;4.37;;;0.50;99.90;;;;;;5093835;28;20175;-88
2022/02/13 07:29:58;;;;;;;7.27;3.73;;;0.70;99.90;;;;;;5093751;28;20449;-87
2022/02/13 07:32:23;;;;;;;10.30;4.00;;;1.00;99.90;;;;;;5093641;28;20446;-87
2022/02/13 07:34:49;;;;;;;10.10;3.50;;;1.30;99.90;;;;;;5093434;28;20172;-87
2022/02/13 07:37:14;;;;;;;7.37;3.93;;;1.20;99.90;;;;;;5092386;28;20557;-87
2022/02/13 07:39:40;;;;;;;6.00;3.60;;;1.20;99.90;;;;;;5093398;28;20662;-87
2022/02/13 07:42:06;;;;;;;10.90;4.47;;;1.40;99.90;;;;;;5092463;28;20539;-88
2022/02/13 07:44:32;;;;;;;14.90;5.23;;;1.50;99.90;;;;;;5092261;28;20423;-87
2022/02/13 07:46:57;;;;;;;8.80;4.70;;;1.90;99.90;;;;;;5092289;28;20624;-88
2022/02/13 07:49:23;;;;;;;11.13;4.43;;;2.30;99.90;;;;;;5091902;28;20416;-85
2022/02/13 07:51:50;;;;;;;17.27;6.37;;;2.70;99.90;;;;;;5092064;28;20174;-85
2022/02/13 07:54:15;;;;;;;13.40;6.10;;;2.90;99.90;;;;;;5091808;28;20172;-86
2022/02/13 07:56:41;;;;;;;8.10;4.30;;;3.20;99.90;;;;;;5093152;28;20523;-85
2022/02/13 07:59:07;;;;;;;6.30;3.27;;;3.10;99.90;;;;;;5091001;28;20184;-86
2022/02/13 08:01:33;;;;;;;4.00;2.00;;;3.00;99.90;;;;;;5091553;28;20458;-85
2022/02/13 08:03:58;;;;;;;6.20;2.87;;;3.10;99.90;;;;;;5091386;28;20343;-86
2022/02/13 08:06:24;;;;;;;6.10;3.60;;;3.60;99.90;;;;;;5092968;28;20460;-85
2022/02/13 08:08:50;;;;;;;5.80;2.30;;;3.90;99.90;;;;;;5091901;28;20630;-85
2022/02/13 08:11:17;;;;;;;3.23;2.53;;;4.20;99.90;;;;;;5093140;28;20176;-85
2022/02/13 08:13:42;;;;;;;6.13;2.83;;;4.30;99.90;;;;;;5091897;28;20426;-86
2022/02/13 08:16:08;;;;;;;6.80;3.40;;;4.20;99.90;;;;;;5093133;28;20604;-87
2022/02/13 08:18:33;;;;;;;8.50;3.90;;;4.30;99.90;;;;;;5092936;28;20169;-86
2022/02/13 08:21:03;;;;;;;7.90;3.73;;;4.60;99.90;;;;;;5092800;28;20590;-86
2022/02/13 08:23:28;;;;;;;8.60;3.70;;;4.90;99.90;;;;;;5093059;28;20165;-86
2022/02/13 08:25:54;;;;;;;6.00;4.20;;;5.30;99.90;;;;;;5091991;28;20428;-85
2022/02/13 08:28:19;;;;;;;7.20;2.60;;;6.30;99.90;;;;;;5091187;28;20221;-87
2022/02/13 08:30:46;;;;;;;4.70;3.17;;;6.70;99.90;;;;;;5092717;28;20542;-86
2022/02/13 08:33:12;;;;;;;3.97;1.77;;;6.50;99.90;;;;;;5093637;28;20167;-86
2022/02/13 08:35:38;;;;;;;5.70;2.40;;;6.00;99.90;;;;;;5091253;28;20487;-83
2022/02/13 08:38:05;;;;;;;7.07;3.93;;;5.50;99.90;;;;;;5092751;28;20421;-85
2022/02/13 08:40:33;;;;;;;4.60;3.30;;;6.40;99.90;;;;;;5092774;28;20161;-87
2022/02/13 08:42:59;;;;;;;5.30;3.80;;;7.40;98.10;;;;;;5092509;28;20422;-87
2022/02/13 08:45:28;;;;;;;8.77;4.93;;;8.50;99.90;;;;;;5092313;28;20760;-87
2022/02/13 08:47:54;;;;;;;4.43;2.87;;;9.00;99.90;;;;;;5091862;28;20768;-88
2022/02/13 08:50:19;;;;;;;6.37;3.13;;;9.60;99.90;;;;;;5092467;28;20521;-87
2022/02/13 08:52:48;;;;;;;4.50;2.30;;;9.70;1.00;;;;;;5092438;28;20179;-87
2022/02/13 08:55:14;;;;;;;6.53;2.13;;;10.00;1.00;;;;;;5091578;28;20178;-87
2022/02/13 08:57:40;;;;;;;5.20;2.50;;;9.50;1.00;;;;;;5091733;28;20422;-86
2022/02/13 09:00:07;;;;;;;5.53;2.43;;;9.40;99.90;;;;;;5093507;28;20455;-87
2022/02/13 09:02:33;;;;;;;4.60;2.57;;;10.10;1.00;;;;;;5093555;28;20540;-86
2022/02/13 09:04:59;;;;;;;4.67;2.73;;;9.70;1.00;;;;;;5093951;28;20467;-86
2022/02/13 09:07:25;;;;;;;6.47;2.20;;;10.60;1.00;;;;;;5103937;28;20419;-86
2022/02/13 09:09:50;;;;;;;4.87;2.30;;;10.00;99.90;;;;;;5095810;28;20475;-88
2022/02/13 09:12:19;;;;;;;3.13;1.80;;;9.50;99.90;;;;;;5094625;28;20251;-88
2022/02/13 09:14:48;;;;;;;4.63;2.13;;;9.60;99.90;;;;;;5093827;28;20222;-88
2022/02/13 09:17:13;;;;;;;4.03;2.30;;;9.10;99.90;;;;;;5094388;28;20807;-87
2022/02/13 09:19:39;;;;;;;4.07;2.03;;;9.00;99.90;;;;;;5091014;28;20459;-87
2022/02/13 09:22:05;;;;;;;3.90;2.10;;;9.70;99.90;;;;;;5091481;28;20654;-87
2022/02/13 09:24:30;;;;;;;3.90;2.03;;;10.00;99.90;;;;;;5092760;28;20238;-87
2022/02/13 09:26:56;;;;;;;4.97;1.60;;;10.00;99.90;;;;;;5092323;28;20179;-87
2022/02/13 09:29:21;;;;;;;4.37;1.90;;;9.20;99.90;;;;;;5092382;28;20249;-87
2022/02/13 09:31:47;;;;;;;2.80;1.93;;;9.80;99.90;;;;;;5092122;28;20181;-87
2022/02/13 09:34:18;;;;;;;2.37;2.00;;;8.10;99.90;;;;;;5090805;28;20255;-88
2022/02/13 09:36:45;;;;;;;5.77;3.70;;;8.30;99.90;;;;;;5093637;28;20277;-87
2022/02/13 09:39:11;;;;;;;4.80;3.70;;;8.50;99.90;;;;;;5094982;28;20466;-88
2022/02/13 09:41:38;;;;;;;3.43;1.83;;;9.40;99.90;;;;;;5091893;28;20430;-87
2022/02/13 09:44:03;;;;;;;4.40;1.57;;;10.90;99.90;;;;;;5089498;28;20569;-88
2022/02/13 09:46:30;;;;;;;10.40;2.80;;;10.70;99.90;;;;;;5095196;28;20414;-87
2022/02/13 09:48:56;;;;;;;4.23;1.73;;;10.80;99.90;;;;;;5094205;28;20528;-89
2022/02/13 09:51:22;;;;;;;3.83;2.30;;;10.60;99.90;;;;;;5094835;28;20438;-88
2022/02/13 09:53:47;;;;;;;4.57;2.27;;;11.10;99.90;;;;;;5094332;28;20176;-88
2022/02/13 09:56:13;;;;;;;2.67;1.60;;;10.80;99.90;;;;;;5094948;28;20291;-89
2022/02/13 09:58:38;;;;;;;4.10;2.13;;;10.90;99.90;;;;;;5093310;28;20179;-88
2022/02/13 10:01:10;;;;;;;3.40;1.77;;;10.30;99.90;;;;;;5093151;28;20303;-89
2022/02/13 10:03:44;;;;;;;4.07;1.80;;;10.60;99.90;;;;;;5091711;28;20222;-89
2022/02/13 10:06:13;;;;;;;3.27;1.73;;;10.60;99.90;;;;;;5094260;28;20414;-85
2022/02/13 10:08:43;;;;;;;2.00;1.00;;;9.40;1.00;;;;;;5092933;28;20461;-87
2022/02/13 10:11:17;;;;;;;4.33;1.87;;;9.10;1.00;;;;;;5094120;28;20406;-89
2022/02/13 10:13:56;;;;;;;5.17;1.90;;;10.30;1.00;;;;;;5091115;28;20465;-88
2022/02/13 10:16:24;;;;;;;5.17;2.23;;;9.90;1.00;;;;;;5095162;28;20463;-87
2022/02/13 10:18:56;;;;;;;4.57;2.30;;;9.60;1.00;;;;;;5094918;28;20902;-87
2022/02/13 10:21:30;;;;;;;3.80;1.93;;;9.90;1.00;;;;;;5093855;28;20426;-87
2022/02/13 10:24:22;;;;;;;4.00;2.03;;;10.30;99.90;;;;;;5095418;28;20407;-87
2022/02/13 10:27:08;;;;;;;3.90;1.77;;;10.40;99.90;;;;;;5093940;28;20412;-88
2022/02/13 10:29:36;;;;;;;4.83;2.10;;;10.90;99.90;;;;;;5093627;28;20451;-88
2022/02/13 10:32:17;;;;;;;4.10;2.00;;;10.80;99.90;;;;;;5094862;28;20529;-88
2022/02/13 10:34:59;;;;;;;2.93;1.50;;;10.70;99.90;;;;;;5094603;28;20438;-88
2022/02/13 10:37:46;;;;;;;3.23;1.50;;;11.10;99.90;;;;;;5093290;28;21060;-89
2022/02/13 10:40:15;;;;;;;3.93;2.50;;;11.00;99.90;;;;;;5093346;28;20979;-88
2022/02/13 10:42:41;;;;;;;5.73;3.03;;;10.90;99.90;;;;;;5093198;28;20409;-87
2022/02/13 10:45:27;;;;;;;4.00;1.83;;;10.60;99.90;;;;;;5093218;28;20498;-87
2022/02/13 10:48:04;;;;;;;4.30;2.53;;;11.40;99.90;;;;;;5092274;28;20170;-87
2022/02/13 10:50:32;;;;;;;4.77;2.40;;;11.60;1.00;;;;;;5080644;28;20440;-86
2022/02/13 10:52:59;;;;;;;2.83;2.43;;;11.50;99.90;;;;;;5094186;28;21120;-87
2022/02/13 10:55:26;;;;;;;6.57;3.10;;;11.00;99.90;;;;;;5094125;28;20771;-87
2022/02/13 10:57:52;;;;;;;5.07;2.50;;;11.30;99.90;;;;;;5094385;28;20492;-86
2022/02/13 11:00:18;;;;;;;3.97;2.50;;;11.40;99.90;;;;;;5093097;28;20920;-87
2022/02/13 11:02:48;;;;;;;6.53;2.70;;;11.60;99.90;;;;;;5092875;28;21019;-86
2022/02/13 11:05:15;;;;;;;4.00;1.50;;;11.00;99.90;;;;;;5092862;28;20777;-86
2022/02/13 11:07:45;;;;;;;4.63;1.97;;;11.30;99.90;;;;;;5093471;28;20464;-88
2022/02/13 11:10:17;;;;;;;3.47;2.30;;;11.70;99.90;;;;;;5093057;28;20432;-88
2022/02/13 11:12:44;;;;;;;4.00;1.70;;;11.10;99.90;;;;;;5094077;28;20423;-88
2022/02/13 11:15:21;;;;;;;4.53;2.30;;;11.20;99.90;;;;;;5094532;28;20769;-88
2022/02/13 11:17:50;;;;;;;2.63;1.37;;;10.90;99.90;;;;;;5092137;28;20434;-88
2022/02/13 11:20:17;;;;;;;3.30;1.47;;;11.90;99.90;;;;;;5093585;28;20428;-87
2022/02/13 11:22:47;;;;;;;4.20;2.10;;;11.50;99.90;;;;;;5094027;28;20413;-88
2022/02/13 11:25:13;;;;;;;3.87;2.77;;;11.20;99.90;;;;;;5094046;28;20428;-88
2022/02/13 11:27:59;;;;;;;3.20;2.10;;;11.40;99.90;;;;;;5092318;28;20915;-88
2022/02/13 11:30:44;;;;;;;2.70;1.57;;;11.60;99.90;;;;;;5093407;28;20416;-87
2022/02/13 11:33:28;;;;;;;5.40;2.67;;;12.10;99.90;;;;;;5093488;28;20412;-87
2022/02/13 11:36:03;;;;;;;5.47;2.37;;;11.90;99.90;;;;;;5089902;28;20460;-87
2022/02/13 11:38:40;;;;;;;3.10;2.03;;;12.40;99.90;;;;;;5092329;28;21009;-87
2022/02/13 11:41:06;;;;;;;3.73;2.40;;;12.30;99.90;;;;;;5093089;28;20519;-88
2022/02/13 11:43:44;;;;;;;2.97;2.33;;;12.30;99.90;;;;;;5093793;28;20404;-88
2022/02/13 11:46:25;;;;;;;6.73;2.30;;;12.50;99.90;;;;;;5077886;28;20450;-87
2022/02/13 11:48:57;;;;;;;8.53;2.23;;;12.90;99.90;;;;;;5074293;28;20749;-87
2022/02/13 11:51:45;;;;;;;3.57;2.60;;;12.80;99.90;;;;;;5078924;28;20435;-85
2022/02/13 11:54:49;;;;;;;4.13;2.13;;;12.50;99.90;;;;;;5071950;28;20499;-86
2022/02/13 11:57:19;;;;;;;5.60;2.90;;;12.80;99.90;;;;;;5064175;28;20477;-85
2022/02/13 12:00:00;;;;;;;4.10;2.50;;;11.70;99.90;;;;;;5088441;28;20447;-90
2022/02/13 12:02:31;;;;;;;4.30;2.60;;;12.40;99.90;;;;;;5091242;28;20475;-86
2022/02/13 12:05:11;;;;;;;6.03;3.00;;;11.80;99.90;;;;;;5092039;28;20414;-85
2022/02/13 12:07:54;;;;;;;4.20;2.30;;;11.90;99.90;;;;;;5092431;28;20411;-84
2022/02/13 12:10:31;;;;;;;3.60;1.80;;;12.70;99.90;;;;;;5092284;28;20470;-86
2022/02/13 12:13:24;;;;;;;6.30;1.77;;;13.40;99.90;;;;;;5092360;28;20412;-87
2022/02/13 12:15:57;;;;;;;6.63;2.70;;;13.20;99.90;;;;;;5087010;28;20451;-86
2022/02/13 12:18:25;;;;;;;4.60;2.63;;;13.50;99.90;;;;;;5075314;28;20868;-84
2022/02/13 12:20:58;;;;;;;4.10;2.60;;;12.80;99.90;;;;;;5084844;28;20433;-86
2022/02/13 12:23:23;;;;;;;3.43;1.80;;;12.10;99.90;;;;;;5090996;28;20486;-88
2022/02/13 12:25:49;;;;;;;4.50;2.07;;;12.40;99.90;;;;;;5089044;28;20836;-85
2022/02/13 12:28:19;;;;;;;4.97;2.47;;;;;;;;;;5089714;28;20161;-86
2022/02/13 12:30:55;;;;;;;4.20;3.00;;;13.70;99.90;;;;;;5092684;28;20409;-86
2022/02/13 12:33:25;;;;;;;4.27;2.60;;;13.20;99.90;;;;;;5091715;28;20418;-84
2022/02/13 12:35:51;;;;;;;2.90;2.43;;;12.20;99.90;;;;;;5092822;28;20532;-87
2022/02/13 12:38:17;;;;;;;4.00;3.00;;;13.30;99.90;;;;;;5092125;28;20421;-86
2022/02/13 12:40:47;;;;;;;4.17;2.33;;;13.10;99.90;;;;;;5093521;28;20425;-85
2022/02/13 12:43:16;;;;;;;4.37;2.33;;;13.70;99.90;;;;;;5092854;28;20161;-85
2022/02/13 12:45:43;;;;;;;3.30;2.17;;;13.10;99.90;;;;;;5092022;28;20427;-79
2022/02/13 12:48:12;;;;;;;6.47;2.43;;;12.40;99.90;;;;;;5091967;28;20461;-80
2022/02/13 12:50:41;;;;;;;3.37;2.53;;;11.90;99.90;;;;;;5090393;28;20943;-81
2022/02/13 12:53:12;;;;;;;4.33;2.20;;;11.40;99.90;;;;;;5091990;28;20476;-81
2022/02/13 12:55:40;;;;;;;5.07;2.80;;;10.80;99.90;;;;;;5092002;28;20552;-81
2022/02/13 12:58:06;;;;;;;4.57;2.37;;;10.70;99.90;;;;;;5092168;28;20443;-81
2022/02/13 13:00:52;;;;;;;4.20;2.50;;;11.00;99.90;;;;;;5092167;28;20440;-82
2022/02/13 13:03:19;;;;;;;4.30;2.00;;;10.70;99.90;;;;;;5091962;28;20196;-81
2022/02/13 13:05:47;;;;;;;4.70;2.13;;;10.70;99.90;;;;;;5090025;28;20438;-81